Latest Weather Observations for Creal Reef

IDQ60801

Issued at 9:02 pm EST Thursday 18 December 2014 (issued every 30 minutes, with the page automatically refreshed every 10 minutes)

About weather observations | Map of weather stations | Latest weather observations for QLD | Other Formats
Station Details ID: 200736 Name: CREAL REEF Lat: -20.53 Lon: 150.38 Height: 1.7 m
Data from the previous 72 hours. | See also: Recent months for locations in Queensland
Date/Time
EST
Temp
°C
App
Temp
°C
Dew
Point
Rel
Hum
%
Delta-T
°C
Wind Press
QNH
hPa
Press
MSL
hPa
Rain
since 9 am
mm
Dir
 
Spd
km/h
Gust
km/h
Spd
kts
Gust
kts
18/09:00pm 27.0 - - - - N 20 24 11 13 1011.7 - -
18/08:30pm 27.0 - - - - N 20 24 11 13 1011.4 - -
18/08:20pm 27.0 - - - - N 20 - 11 - - 1011.3 -
18/08:00pm 27.1 - - - - N 19 22 10 12 1011.3 - -
18/07:30pm 27.1 - - - - N 19 20 10 11 1011.2 - -
18/07:20pm 27.1 - - - - N 19 - 10 - - 1011.0 -
18/07:00pm 27.1 - - - - N 17 20 9 11 1010.9 - -
18/06:30pm 27.1 - - - - N 17 20 9 11 1010.9 - -
18/06:20pm 27.1 - - - - N 17 - 9 - - 1010.6 -
18/06:00pm 27.1 - - - - N 19 22 10 12 1010.3 - -
18/05:30pm 27.2 - - - - N 20 26 11 14 1009.6 - -
18/05:20pm 27.2 - - - - N 22 - 12 - - 1009.2 -
18/05:00pm 27.2 - - - - N 24 26 13 14 1008.9 - -
18/04:30pm 27.1 - - - - NNE 24 28 13 15 1008.7 - -
18/04:20pm 27.1 - - - - NNE 22 - 12 - - 1008.8 -
18/04:00pm 27.2 - - - - NNE 24 28 13 15 1008.9 - -
18/03:30pm 27.2 - - - - NNE 22 26 12 14 1009.1 - -
18/03:20pm 27.2 - - - - N 24 - 13 - - 1009.2 -
18/03:00pm 27.2 - - - - NNE 24 30 13 16 1009.7 - -
18/02:30pm 27.2 - - - - NNE 22 24 12 13 1010.1 - -
18/02:20pm 27.2 - - - - NNE 22 - 12 - - 1010.1 -
18/02:00pm 27.3 - - - - N 22 26 12 14 1010.6 - -
18/01:30pm 27.2 - - - - N 22 26 12 14 1011.0 - -
18/01:20pm 27.2 - - - - N 22 - 12 - - 1011.1 -
18/01:00pm 27.2 - - - - N 20 24 11 13 1011.2 - -
18/12:30pm 27.1 - - - - N 20 22 11 12 1011.4 - -
18/12:20pm 27.1 - - - - N 20 - 11 - - 1011.4 -
18/12:00pm 27.1 - - - - N 19 22 10 12 1011.7 - -
18/11:30am 27.1 - - - - N 20 22 11 12 1012.2 - -
18/11:20am 27.1 - - - - N 20 - 11 - - 1012.0 -
18/11:00am 27.1 - - - - N 19 22 10 12 1012.4 - -
18/10:30am 27.1 - - - - N 20 24 11 13 1012.5 - -
18/10:20am 27.1 - - - - N 20 - 11 - - 1012.4 -
18/10:00am 27.0 - - - - N 22 28 12 15 1012.5 - -
18/09:30am 27.1 - - - - N 22 26 12 14 1012.7 - -
18/09:20am 27.1 - - - - N 24 - 13 - - 1012.5 -
18/09:00am 27.0 - - - - N 26 30 14 16 1012.5 - -
18/08:30am 27.0 - - - - N 26 30 14 16 1012.3 - -
18/08:20am 27.0 - - - - N 28 - 15 - - 1012.2 -
18/08:00am 27.0 - - - - NNE 26 30 14 16 1012.4 - -
18/07:30am 27.0 - - - - N 22 26 12 14 1012.3 - -
18/07:20am 27.0 - - - - N 24 - 13 - - 1012.0 -
18/07:00am 27.0 - - - - N 26 30 14 16 1011.9 - -
18/06:30am 27.0 - - - - N 24 28 13 15 1011.6 - -
18/06:20am 27.0 - - - - N 24 24 13 13 1011.5 1011.4 -
18/06:00am 26.9 - - - - N 24 28 13 15 1011.4 - -
18/05:30am 26.9 - - - - N 24 28 13 15 1010.8 - -
18/05:20am 26.9 - - - - N 24 - 13 - - 1010.4 -
18/05:00am 26.9 - - - - N 24 28 13 15 1010.2 - -
18/04:30am 26.9 - - - - N 28 32 15 17 1009.7 - -
18/04:20am 26.9 - - - - N 28 - 15 - - 1009.6 -
18/04:00am 26.9 - - - - N 26 30 14 16 1009.5 - -
18/03:30am 27.0 - - - - N 24 28 13 15 1009.6 - -
18/03:20am 26.9 - - - - N 26 - 14 - - 1009.5 -
18/03:00am 27.0 - - - - N 22 24 12 13 1009.6 - -
18/02:30am 27.0 - - - - N 22 24 12 13 1009.5 - -
18/02:20am 27.1 - - - - N 22 - 12 - - 1009.5 -
18/02:00am 27.0 - - - - N 24 28 13 15 1009.7 - -
18/01:30am 27.0 - - - - N 24 28 13 15 1009.5 - -
18/01:20am 27.1 - - - - N 24 - 13 - - 1009.5 -
18/01:00am 27.1 - - - - N 24 28 13 15 1009.7 - -
18/12:30am 27.2 - - - - NNW 24 26 13 14 1010.0 - -
18/12:20am 27.2 - - - - NNW 22 - 12 - - 1009.9 -
18/12:00am 27.2 - - - - N 24 28 13 15 1009.9 - -
 
Date/Time
EST
Temp
°C
App
Temp
°C
Dew
Point
Rel
Hum
%
Delta-T
°C
Wind Press
QNH
hPa
Press
MSL
hPa
Rain
since 9 am
mm
Dir
 
Spd
km/h
Gust
km/h
Spd
kts
Gust
kts
17/11:30pm 27.3 - - - - N 22 24 12 13 1010.3 - -
17/11:20pm 27.3 - - - - NNW 22 - 12 - - 1010.1 -
17/11:00pm 27.3 - - - - N 24 30 13 16 1010.0 - -
17/10:30pm 27.2 - - - - N 24 28 13 15 1009.8 - -
17/10:20pm 27.2 - - - - N 26 - 14 - - 1009.7 -
17/10:00pm 27.2 - - - - NNW 24 30 13 16 1009.9 - -
17/09:30pm 27.2 - - - - N 26 30 14 16 1009.3 - -
17/09:20pm 27.2 - - - - N 24 - 13 - - 1009.3 -
17/09:00pm 27.2 - - - - N 26 28 14 15 1009.3 - -
17/08:30pm 27.2 - - - - N 24 28 13 15 1009.3 - -
17/08:20pm 27.2 - - - - N 26 - 14 - - 1009.1 -
17/08:00pm 27.3 - - - - N 24 28 13 15 1009.3 - -
17/07:30pm 27.2 - - - - N 24 28 13 15 1009.0 - -
17/07:20pm 27.2 - - - - NNW 24 - 13 - - 1009.0 -
17/07:00pm 27.3 - - - - N 26 28 14 15 1008.7 - -
17/06:30pm 27.3 - - - - N 24 28 13 15 1008.6 - -
17/06:20pm 27.3 - - - - NNW 24 - 13 - - 1008.5 -
17/06:00pm 27.3 - - - - NNW 24 28 13 15 1008.4 - -
17/05:30pm 27.4 - - - - N 24 28 13 15 1008.0 - -
17/05:20pm 27.3 - - - - N 24 - 13 - - 1007.8 -
17/05:00pm 27.3 - - - - N 24 26 13 14 1007.7 - -
17/04:30pm 27.4 - - - - N 22 28 12 15 1007.6 - -
17/04:20pm 27.4 - - - - N 24 - 13 - - 1007.4 -
17/04:00pm 27.4 - - - - N 22 26 12 14 1007.4 - -
17/03:30pm 27.4 - - - - NNW 20 24 11 13 1007.6 - -
17/03:20pm 27.5 - - - - NNW 22 - 12 - - 1007.6 -
17/03:00pm 27.4 - - - - N 22 24 12 13 1007.8 - -
17/02:30pm 27.4 - - - - N 26 30 14 16 1007.8 - -
17/02:20pm 27.4 - - - - N 26 - 14 - - 1007.6 -
17/02:00pm 27.3 - - - - N 26 30 14 16 1007.8 - -
17/01:30pm 27.3 - - - - NNW 24 28 13 15 1008.0 - -
17/01:20pm 27.4 - - - - NNW 24 - 13 - - 1008.2 -
17/01:00pm 27.2 - - - - N 22 28 12 15 1008.4 - -
17/12:30pm 27.2 - - - - NNW 26 30 14 16 1008.8 - -
17/12:20pm 27.3 - - - - NNW 24 - 13 - - 1008.9 -
17/12:00pm 27.2 - - - - NNW 26 30 14 16 1008.9 - -
17/11:30am 27.2 - - - - NNW 26 30 14 16 1009.3 - -
17/11:20am 27.2 - - - - NNW 26 - 14 - - 1009.3 -
17/11:00am 27.2 - - - - NNW 24 28 13 15 1009.6 - -
17/10:30am 27.2 - - - - NNW 24 28 13 15 1009.8 - -
17/10:20am 27.1 - - - - N 22 - 12 - - 1009.8 -
17/10:00am 27.1 - - - - N 24 28 13 15 1010.0 - -
17/09:30am 27.1 - - - - N 24 28 13 15 1009.9 - -
17/09:20am 27.2 - - - - N 24 - 13 - - 1010.0 -
17/09:00am 27.1 - - - - NNW 22 26 12 14 1010.2 - -
17/08:30am 27.1 - - - - NNW 22 26 12 14 1010.1 - -
17/08:20am 27.1 - - - - NNW 24 - 13 - - 1010.0 -
17/08:00am 27.1 - - - - NNW 24 28 13 15 1010.1 - -
17/07:30am 27.0 - - - - N 24 28 13 15 1009.9 - -
17/07:20am 26.9 - - - - NNW 22 - 12 - - 1009.8 -
17/07:00am 26.9 - - - - N 22 26 12 14 1009.8 - -
17/06:30am 26.9 - - - - NNW 22 24 12 13 1009.3 - -
17/06:20am 26.9 - - - - NNW 22 - 12 - - 1009.4 -
17/06:00am 26.9 - - - - NNW 24 30 13 16 1009.1 - -
17/05:30am 26.7 - - - - NNW 26 30 14 16 1008.7 - -
17/05:20am 26.7 - - - - NNW 28 - 15 - - 1008.5 -
17/05:00am 26.7 - - - - NNW 30 33 16 18 1008.0 - -
17/04:30am 26.7 - - - - NNW 30 33 16 18 1007.7 - -
17/04:20am 26.6 - - - - N 28 - 15 - - 1007.7 -
17/04:00am 26.6 - - - - N 28 33 15 18 1007.5 - -
17/03:30am 26.7 - - - - NNW 28 32 15 17 1007.4 - -
17/03:20am 26.8 - - - - NNW 28 - 15 - - 1007.4 -
17/03:00am 26.7 - - - - NNW 28 32 15 17 1007.5 - -
17/02:30am 26.8 - - - - NNW 28 32 15 17 1007.5 - -
17/02:20am 26.7 - - - - NNW 30 - 16 - - 1007.6 -
17/02:00am 26.8 - - - - NNW 28 32 15 17 1007.8 - -
17/01:30am 26.8 - - - - NNW 28 33 15 18 1007.9 - -
17/01:20am 26.8 - - - - NNW 30 - 16 - - 1008.0 -
17/01:00am 26.9 - - - - NNW 30 33 16 18 1008.2 - -
17/12:30am 26.9 - - - - NNW 28 32 15 17 1008.4 - -
17/12:20am 26.9 - - - - NNW 28 - 15 - - 1008.6 -
17/12:00am 26.8 - - - - N 28 32 15 17 1008.7 - -
 
Date/Time
EST
Temp
°C
App
Temp
°C
Dew
Point
Rel
Hum
%
Delta-T
°C
Wind Press
QNH
hPa
Press
MSL
hPa
Rain
since 9 am
mm
Dir
 
Spd
km/h
Gust
km/h
Spd
kts
Gust
kts
16/11:30pm 26.7 - - - - N 26 30 14 16 1009.0 - -
16/11:20pm 26.6 - - - - N 28 - 15 - - 1009.1 -
16/11:00pm 26.6 - - - - N 28 32 15 17 1009.3 - -
16/10:30pm 26.6 - - - - N 28 32 15 17 1009.3 - -
16/10:20pm 26.6 - - - - N 28 - 15 - - 1009.2 -
16/10:00pm 26.7 - - - - N 26 32 14 17 1009.3 - -
16/09:30pm 26.7 - - - - N 26 30 14 16 1009.5 - -
16/09:20pm 26.8 - - - - N 28 - 15 - - 1009.2 -
16/09:00pm 26.7 - - - - N 28 32 15 17 1009.0 - -
16/08:30pm 26.8 - - - - N 28 32 15 17 1008.9 - -
16/08:20pm 26.9 - - - - N 28 - 15 - - 1008.9 -
16/08:00pm 26.9 - - - - N 24 26 13 14 1009.1 - -
16/07:30pm 26.8 - - - - N 22 24 12 13 1009.0 - -
16/07:20pm 26.7 - - - - N 22 - 12 - - 1009.0 -
16/07:00pm 26.9 - - - - N 22 24 12 13 1008.9 - -
16/06:30pm 27.0 - - - - N 20 24 11 13 1008.6 - -
16/06:20pm 26.9 - - - - N 19 - 10 - - 1008.4 -
16/06:00pm 26.9 - - - - N 19 20 10 11 1008.3 - -
16/05:30pm 27.0 - - - - N 13 17 7 9 1008.2 - -
16/05:20pm 27.0 - - - - N 13 - 7 - - 1008.2 -
16/05:00pm 27.0 - - - - N 13 15 7 8 1008.1 - -
16/04:30pm 27.1 - - - - N 13 15 7 8 1008.3 - -
16/04:20pm 27.1 - - - - NNW 13 - 7 - - 1008.2 -
16/04:00pm 27.3 - - - - NNW 13 15 7 8 1008.2 - -
16/03:30pm 27.0 - - - - N 9 13 5 7 1008.2 - -
16/03:20pm 27.3 - - - - NNW 9 - 5 - - 1008.4 -
16/03:00pm 27.3 - - - - NNW 9 11 5 6 1008.6 - -
16/02:30pm 26.9 - - - - NW 6 7 3 4 1008.9 - -
16/02:20pm 27.1 - - - - NNW 7 - 4 - - 1009.0 -
16/02:00pm 26.7 - - - - N 9 13 5 7 1009.3 - -
16/01:30pm 26.9 - - - - NNW 7 9 4 5 1009.6 - -
16/01:20pm 26.8 - - - - NNW 9 - 5 - - 1009.5 -
16/01:00pm 26.6 - - - - N 9 11 5 6 1009.8 - -
16/12:30pm 26.4 - - - - N 9 13 5 7 1010.1 - -
16/12:20pm 26.5 - - - - N 9 - 5 - - 1010.1 -
16/12:00pm 26.5 - - - - NNW 9 13 5 7 1010.4 - -
16/11:30am 26.4 - - - - NNW 9 13 5 7 1010.8 - -
16/11:20am 26.2 - - - - NW 11 - 6 - - 1010.7 -
16/11:00am 26.2 - - - - NW 9 13 5 7 1010.9 - -
16/10:30am 26.2 - - - - N 9 13 5 7 1011.1 - -
16/10:20am 26.3 - - - - NNW 9 - 5 - - 1011.2 -
16/10:00am 26.1 - - - - NNW 13 17 7 9 1011.2 - -
16/09:30am 26.1 - - - - NNW 13 17 7 9 1011.3 - -
16/09:20am 26.0 - - - - NNW 13 - 7 - - 1011.3 -
16/09:00am 26.0 - - - - NNW 13 15 7 8 1011.5 - -
16/08:30am 25.9 - - - - N 9 13 5 7 1011.6 - -
16/08:20am 25.9 - - - - N 9 - 5 - - 1011.4 -
16/08:00am 26.0 - - - - NNW 9 11 5 6 1011.4 - -
16/07:30am 25.8 - - - - ENE 6 9 3 5 1011.2 - -
16/07:20am 26.0 - - - - E 2 - 1 - - 1011.0 -
16/07:00am 25.9 - - - - NE 7 9 4 5 1010.9 - -
16/06:30am 25.8 - - - - ENE 7 9 4 5 1010.6 - -
16/06:20am 26.0 - - - - ENE 6 - 3 - - 1010.4 -
16/06:00am 25.9 - - - - ENE 6 9 3 5 1010.3 - -
16/05:30am 25.3 - - - - NE 7 9 4 5 1009.7 - -
16/05:20am 25.4 - - - - NE 7 - 4 - - 1009.4 -
16/05:00am 25.4 - - - - NNE 9 11 5 6 1009.3 - -
16/04:30am 25.3 - - - - NE 9 11 5 6 1009.0 - -
16/04:20am 25.4 - - - - NE 9 - 5 - - 1008.9 -
16/04:00am 25.4 - - - - NE 9 11 5 6 1008.8 - -
16/03:30am 25.4 - - - - ENE 7 11 4 6 1008.9 - -
16/03:20am 25.4 - - - - ENE 9 - 5 - - 1008.9 -
16/03:00am 25.5 - - - - ENE 9 11 5 6 1009.0 - -
16/02:30am 25.5 - - - - NNE 7 11 4 6 1009.1 - -
16/02:20am 25.6 - - - - ENE 7 - 4 - - 1009.1 -
16/02:00am 25.5 - - - - NE 9 11 5 6 1009.3 - -
16/01:30am 25.6 - - - - NE 9 13 5 7 1009.6 - -
16/01:20am 25.7 - - - - NNE 9 - 5 - - 1009.7 -
16/01:00am 25.8 - - - - NNE 9 11 5 6 1010.0 - -
16/12:30am 25.8 - - - - NNE 9 11 5 6 1010.4 - -
16/12:20am 25.9 - - - - NE 9 - 5 - - 1010.4 -
16/12:00am 26.0 - - - - NNE 11 13 6 7 1010.8 - -
 
Date/Time
EST
Temp
°C
App
Temp
°C
Dew
Point
Rel
Hum
%
Delta-T
°C
Wind Press
QNH
hPa
Press
MSL
hPa
Rain
since 9 am
mm
Dir
 
Spd
km/h
Gust
km/h
Spd
kts
Gust
kts
15/11:30pm 25.9 - - - - NNE 13 15 7 8 1011.1 - -
15/11:20pm 26.0 - - - - NE 11 - 6 - - 1011.1 -
15/11:00pm 26.1 - - - - NE 13 17 7 9 1011.3 - -
15/10:30pm 26.2 - - - - ENE 13 17 7 9 1011.4 - -
15/10:20pm 26.2 - - - - E 13 - 7 - - 1011.3 -
15/10:00pm 26.3 - - - - E 13 17 7 9 1011.3 - -
15/09:30pm 26.4 - - - - E 13 15 7 8 1011.4 - -
15/09:20pm 26.3 - - - - E 15 - 8 - - 1011.2 -

Other Formats:

Comma delimited format used in spreadsheet applications
http://www.bom.gov.au/fwo/IDQ60801/IDQ60801.94371.axf

JavaScript Object Notation format (JSON) in row-major order
http://www.bom.gov.au/fwo/IDQ60801/IDQ60801.94371.json